createdAt,value
2022-10-15T00:01:31.682Z,19.97
2022-10-15T00:06:30.151Z,19.92
2022-10-15T00:08:58.218Z,19.85
2022-10-15T00:11:28.387Z,20.30
2022-10-15T00:13:58.494Z,20.12
2022-10-15T00:16:29.569Z,20.18
2022-10-15T00:18:58.487Z,20.91
2022-10-15T00:21:26.908Z,19.66
2022-10-15T00:23:55.088Z,19.35
2022-10-15T00:26:25.426Z,19.80
2022-10-15T00:28:55.564Z,19.81
2022-10-15T00:31:24.702Z,19.70
2022-10-15T00:33:55.841Z,20.04
2022-10-15T00:36:25.564Z,19.95
2022-10-15T00:38:54.471Z,19.80
2022-10-15T00:41:24.474Z,19.90
2022-10-15T00:43:54.174Z,19.86
2022-10-15T00:46:25.804Z,19.96
2022-10-15T00:48:58.761Z,19.94
2022-10-15T00:51:30.991Z,19.93
2022-10-15T00:53:59.085Z,19.36
2022-10-15T00:56:28.576Z,19.84
2022-10-15T00:58:57.483Z,19.89
2022-10-15T01:01:26.518Z,19.83
2022-10-15T01:03:56.982Z,19.91
2022-10-15T01:06:26.129Z,19.66
2022-10-15T01:08:54.333Z,19.14
2022-10-15T01:11:32.172Z,19.77
2022-10-15T01:14:05.046Z,19.56
2022-10-15T01:16:37.688Z,19.48
2022-10-15T01:19:11.567Z,19.35
2022-10-15T01:21:45.708Z,19.47
2022-10-15T01:24:38.316Z,19.64
2022-10-15T01:27:31.698Z,19.68
2022-10-15T01:30:20.642Z,19.55
2022-10-15T01:33:04.495Z,19.19
2022-10-15T01:35:38.867Z,19.29
2022-10-15T01:38:12.316Z,19.16
2022-10-15T01:40:46.084Z,19.18
2022-10-15T01:43:17.293Z,19.06
2022-10-15T01:45:49.118Z,19.10
2022-10-15T01:48:19.060Z,19.05
2022-10-15T01:50:49.864Z,19.09
2022-10-15T01:53:26.539Z,19.16
2022-10-15T01:55:56.059Z,18.84
2022-10-15T01:58:25.284Z,18.95
2022-10-15T02:00:55.980Z,19.15
2022-10-15T02:03:24.272Z,18.66
2022-10-15T02:05:56.677Z,19.34
2022-10-15T02:08:37.312Z,19.64
2022-10-15T02:11:08.420Z,19.27
2022-10-15T02:13:43.529Z,19.46
2022-10-15T02:16:15.711Z,19.37
2022-10-15T02:18:48.276Z,19.26
2022-10-15T02:21:19.144Z,19.13
2022-10-15T02:23:54.287Z,19.15
2022-10-15T02:26:25.597Z,18.82
2022-10-15T02:28:56.263Z,18.91
2022-10-15T02:31:26.659Z,18.78
2022-10-15T02:33:57.024Z,18.69
2022-10-15T02:36:25.712Z,18.28
2022-10-15T02:38:56.255Z,18.59
2022-10-15T02:41:24.528Z,18.14
2022-10-15T02:43:52.863Z,18.08
2022-10-15T02:46:21.244Z,18.24
2022-10-15T02:48:50.849Z,18.62
2022-10-15T02:51:19.283Z,18.19
2022-10-15T02:53:47.507Z,17.94
2022-10-15T02:56:16.080Z,17.92
2022-10-15T02:58:44.439Z,17.87
2022-10-15T03:01:12.642Z,17.92
2022-10-15T03:03:40.797Z,17.86
2022-10-15T03:06:10.460Z,18.34
2022-10-15T03:08:38.855Z,17.99
2022-10-15T03:11:06.982Z,17.89
2022-10-15T03:13:36.933Z,18.33
2022-10-15T03:16:05.875Z,18.17
2022-10-15T03:18:36.826Z,17.93
2022-10-15T03:21:08.158Z,17.82
2022-10-15T03:23:37.846Z,18.30
2022-10-15T03:26:06.254Z,17.90
2022-10-15T03:28:34.810Z,17.89
2022-10-15T03:31:02.921Z,17.97
2022-10-15T03:33:31.040Z,17.91
2022-10-15T03:35:59.415Z,18.00
2022-10-15T03:38:27.811Z,17.96
2022-10-15T03:40:57.281Z,18.24
2022-10-15T03:43:26.469Z,17.83
2022-10-15T03:45:54.827Z,17.96
2022-10-15T03:48:22.992Z,17.70
2022-10-15T03:50:51.319Z,17.61
2022-10-15T03:53:19.470Z,17.50
2022-10-15T03:55:47.641Z,17.64
2022-10-15T03:58:17.343Z,18.02
2022-10-15T04:00:46.465Z,17.77
2022-10-15T04:03:15.411Z,18.00
2022-10-15T04:05:43.834Z,17.72
2022-10-15T04:08:11.951Z,17.61
2022-10-15T04:10:40.300Z,17.68
2022-10-15T04:13:08.679Z,17.36
2022-10-15T04:15:40.265Z,18.01
2022-10-15T04:18:08.367Z,17.42
2022-10-15T04:20:36.741Z,17.53
2022-10-15T04:23:05.015Z,17.50
2022-10-15T04:25:33.065Z,17.51
2022-10-15T04:28:01.366Z,17.44
2022-10-15T04:30:29.524Z,17.39
2022-10-15T04:32:59.077Z,17.76
2022-10-15T04:35:27.576Z,17.10
2022-10-15T04:37:55.891Z,17.20
2022-10-15T04:40:24.390Z,17.03
2022-10-15T04:42:52.704Z,17.02
2022-10-15T04:45:21.080Z,17.23
2022-10-15T04:47:49.456Z,17.22
2022-10-15T04:50:19.091Z,17.62
2022-10-15T04:52:48.681Z,16.88
2022-10-15T04:55:16.972Z,17.05
2022-10-15T04:57:45.346Z,16.99
2022-10-15T05:00:14.906Z,17.27
2022-10-15T05:02:43.762Z,17.21
2022-10-15T05:05:12.015Z,16.95
2022-10-15T05:07:41.757Z,17.53
2022-10-15T05:10:10.107Z,17.11
2022-10-15T05:12:38.550Z,16.99
2022-10-15T05:15:07.754Z,17.25
2022-10-15T05:17:35.980Z,17.02
2022-10-15T05:20:04.827Z,17.20
2022-10-15T05:22:32.999Z,17.17
2022-10-15T05:25:02.699Z,17.56
2022-10-15T05:27:31.204Z,17.20
2022-10-15T05:29:59.401Z,17.49
2022-10-15T05:32:27.479Z,17.37
2022-10-15T05:34:55.968Z,17.58
2022-10-15T05:37:25.463Z,18.20
2022-10-15T05:39:54.120Z,17.79
2022-10-15T05:42:23.794Z,18.59
2022-10-15T05:44:51.966Z,18.25
2022-10-15T05:47:20.166Z,18.43
2022-10-15T05:49:48.671Z,18.50
2022-10-15T05:52:17.051Z,18.49
2022-10-15T05:54:45.293Z,18.75
2022-10-15T05:57:13.659Z,18.71
2022-10-15T05:59:43.188Z,19.34
2022-10-15T06:02:16.074Z,18.92
2022-10-15T06:04:44.575Z,18.70
2022-10-15T06:07:12.682Z,18.77
2022-10-15T06:09:40.905Z,18.79
2022-10-15T06:12:09.318Z,18.90
2022-10-15T06:14:37.410Z,18.83
2022-10-15T06:17:06.876Z,19.33
2022-10-15T06:19:35.475Z,18.96
2022-10-15T06:22:03.596Z,19.08
2022-10-15T06:24:31.646Z,19.24
2022-10-15T06:27:00.503Z,20.19
2022-10-15T06:29:28.926Z,21.00
2022-10-15T06:31:56.961Z,21.22
2022-10-15T06:34:26.720Z,21.92
2022-10-15T06:36:54.908Z,21.48
2022-10-15T06:39:23.062Z,21.24
2022-10-15T06:41:51.306Z,21.19
2022-10-15T06:44:19.469Z,21.26
2022-10-15T06:46:47.672Z,21.75
2022-10-15T06:49:16.021Z,22.09
2022-10-15T06:51:45.642Z,22.60
2022-10-15T06:54:13.841Z,22.16
2022-10-15T06:56:42.164Z,22.12
2022-10-15T06:59:10.264Z,22.05
2022-10-15T07:01:41.385Z,22.21
2022-10-15T07:04:10.761Z,22.16
2022-10-15T07:06:39.007Z,22.48
2022-10-15T07:09:08.461Z,23.34
2022-10-15T07:11:36.999Z,23.09
2022-10-15T07:14:05.099Z,23.16
2022-10-15T07:16:33.253Z,23.11
2022-10-15T07:19:01.667Z,23.12
2022-10-15T07:21:29.766Z,23.06
2022-10-15T07:23:59.451Z,23.01
2022-10-15T07:26:31.100Z,23.34
2022-10-15T07:28:59.105Z,24.21
2022-10-15T07:31:27.271Z,23.11
2022-10-15T07:33:55.602Z,22.99
2022-10-15T07:36:23.910Z,23.17
2022-10-15T07:38:51.957Z,23.16
2022-10-15T07:41:20.421Z,23.38
2022-10-15T07:43:52.874Z,24.40
2022-10-15T07:46:21.345Z,24.12
2022-10-15T07:48:49.469Z,24.14
2022-10-15T07:53:50.785Z,24.12
2022-10-15T07:56:19.300Z,23.96
2022-10-15T07:58:51.873Z,23.89
2022-10-15T08:01:22.529Z,24.36
2022-10-15T08:03:50.628Z,24.10
2022-10-15T08:06:19.240Z,23.97
2022-10-15T08:08:47.834Z,24.08
2022-10-15T08:11:17.690Z,24.45
2022-10-15T08:13:48.216Z,23.90
2022-10-15T08:16:19.606Z,23.93
2022-10-15T08:18:49.312Z,23.89
2022-10-15T08:21:17.506Z,23.29
2022-10-15T08:23:45.982Z,23.53
2022-10-15T08:26:14.293Z,23.36
2022-10-15T08:28:42.735Z,23.15
2022-10-15T08:31:11.057Z,23.26
2022-10-15T08:33:39.467Z,23.01
2022-10-15T08:36:09.523Z,23.27
2022-10-15T08:38:37.678Z,23.03
2022-10-15T08:41:12.931Z,23.40
2022-10-15T08:43:42.431Z,23.67
2022-10-15T08:46:13.737Z,23.54
2022-10-15T08:48:45.259Z,23.52
2022-10-15T08:51:18.487Z,22.78
2022-10-15T08:53:49.659Z,23.11
2022-10-15T08:56:18.729Z,24.09
2022-10-15T08:58:52.924Z,23.35
2022-10-15T09:01:27.220Z,23.31
2022-10-15T09:04:03.311Z,23.08
2022-10-15T09:06:35.847Z,22.95
2022-10-15T09:09:08.779Z,22.83
2022-10-15T09:11:43.606Z,23.03
2022-10-15T09:14:16.276Z,23.33
2022-10-15T09:16:47.638Z,23.47
2022-10-15T09:19:18.047Z,23.60
2022-10-15T09:21:49.121Z,23.99
2022-10-15T09:24:22.283Z,24.09
2022-10-15T09:27:02.370Z,25.04
2022-10-15T09:29:33.944Z,25.34
2022-10-15T09:32:10.964Z,25.27
2022-10-15T09:34:41.994Z,25.93
2022-10-15T09:37:13.163Z,26.69
2022-10-15T09:39:48.679Z,25.73
2022-10-15T09:42:27.328Z,25.63
2022-10-15T09:44:56.305Z,25.32
2022-10-15T09:47:26.484Z,25.52
2022-10-15T09:49:54.754Z,24.58
2022-10-15T09:52:31.543Z,25.52
2022-10-15T09:55:05.733Z,25.59
2022-10-15T09:57:36.131Z,25.43
2022-10-15T10:00:08.704Z,25.15
2022-10-15T10:02:37.369Z,24.05
2022-10-15T10:05:21.426Z,24.96
2022-10-15T10:07:51.171Z,24.37
2022-10-15T10:10:29.585Z,24.79
2022-10-15T10:12:58.135Z,24.24
2022-10-15T10:15:33.181Z,25.27
2022-10-15T10:18:02.277Z,24.93
2022-10-15T10:20:31.056Z,25.06
2022-10-15T10:23:02.304Z,24.97
2022-10-15T10:25:33.740Z,25.10
2022-10-15T10:28:07.194Z,24.82
2022-10-15T10:30:37.624Z,24.75
2022-10-15T10:33:06.516Z,24.42
2022-10-15T10:35:38.132Z,24.46
2022-10-15T10:38:07.816Z,24.34
2022-10-15T10:40:37.239Z,24.34
2022-10-15T10:43:13.540Z,24.67
2022-10-15T10:45:53.964Z,24.43
2022-10-15T10:48:23.901Z,24.13
2022-10-15T10:51:06.123Z,24.42
2022-10-15T10:53:43.517Z,24.30
2022-10-15T10:56:13.702Z,23.88
2022-10-15T10:58:42.669Z,23.93
2022-10-15T11:01:13.877Z,24.36
2022-10-15T11:03:44.041Z,24.16
2022-10-15T11:06:39.772Z,24.86
2022-10-15T11:09:16.556Z,24.60
2022-10-15T11:11:54.341Z,24.98
2022-10-15T11:14:31.348Z,24.76
2022-10-15T11:17:03.577Z,24.78
2022-10-15T11:20:05.743Z,24.88
2022-10-15T11:22:43.471Z,25.26
2022-10-15T11:25:22.540Z,25.41
2022-10-15T11:28:08.547Z,25.24
2022-10-15T11:30:43.985Z,24.85
2022-10-15T11:33:23.009Z,24.62
2022-10-15T11:35:56.318Z,24.70
2022-10-15T11:38:30.463Z,25.15
2022-10-15T11:41:11.477Z,25.32
2022-10-15T11:43:52.747Z,25.30
2022-10-15T11:46:26.866Z,25.03
2022-10-15T11:49:05.648Z,24.79
2022-10-15T11:51:42.723Z,24.61
2022-10-15T11:54:18.984Z,24.41
2022-10-15T11:56:50.223Z,23.55
2022-10-15T11:59:28.541Z,23.92
2022-10-15T12:02:00.857Z,23.98
2022-10-15T12:04:34.439Z,24.47
2022-10-15T12:07:04.497Z,24.31
2022-10-15T12:09:36.694Z,24.73
2022-10-15T12:12:10.972Z,24.82
2022-10-15T12:14:43.492Z,24.72
2022-10-15T12:17:17.730Z,24.60
2022-10-15T12:19:50.146Z,24.77
2022-10-15T12:22:34.946Z,25.00
2022-10-15T12:25:03.319Z,23.85
2022-10-15T12:27:35.611Z,24.07
2022-10-15T12:30:26.909Z,24.68
2022-10-15T12:32:55.001Z,24.92
2022-10-15T12:35:35.198Z,24.24
2022-10-15T12:38:20.278Z,24.59
2022-10-15T12:40:48.609Z,23.66
2022-10-15T12:43:21.464Z,24.17
2022-10-15T12:45:54.301Z,24.12
2022-10-15T12:48:31.815Z,24.17
2022-10-15T12:51:40.069Z,24.82
2022-10-15T12:54:33.802Z,24.88
2022-10-15T12:57:04.970Z,24.21
2022-10-15T12:59:47.868Z,25.19
2022-10-15T13:05:26.823Z,24.75
2022-10-15T13:07:56.146Z,24.08
2022-10-15T13:10:28.173Z,24.20
2022-10-15T13:12:59.962Z,24.12
2022-10-15T13:15:30.046Z,24.27
2022-10-15T13:18:01.613Z,24.46
2022-10-15T13:20:36.084Z,24.52
2022-10-15T13:23:28.857Z,24.41
2022-10-15T13:26:18.718Z,24.34
2022-10-15T13:28:47.477Z,23.65
2022-10-15T13:31:22.604Z,23.89
2022-10-15T13:33:56.935Z,23.65
2022-10-15T13:36:27.139Z,23.80
2022-10-15T13:38:59.590Z,23.99
2022-10-15T13:41:30.154Z,24.12
2022-10-15T13:44:01.216Z,23.76
2022-10-15T13:46:32.128Z,23.90
2022-10-15T13:49:03.513Z,24.05
2022-10-15T13:51:41.100Z,24.29
2022-10-15T13:54:12.207Z,24.07
2022-10-15T13:56:47.884Z,24.07
2022-10-15T13:59:20.313Z,23.84
2022-10-15T14:01:49.956Z,23.55
2022-10-15T14:04:21.148Z,23.51
2022-10-15T14:07:02.041Z,23.96
2022-10-15T14:09:33.024Z,23.73
2022-10-15T14:12:03.127Z,23.54
2022-10-15T14:14:34.347Z,23.73
2022-10-15T14:17:04.713Z,23.67
2022-10-15T14:19:35.293Z,23.81
2022-10-15T14:22:03.949Z,23.15
2022-10-15T14:24:34.425Z,23.68
2022-10-15T14:27:06.009Z,23.63
2022-10-15T14:29:37.992Z,24.59
2022-10-15T14:32:21.221Z,23.83
2022-10-15T14:34:51.214Z,23.41
2022-10-15T14:37:33.842Z,24.17
2022-10-15T14:40:15.967Z,23.88
2022-10-15T14:42:46.193Z,23.13
2022-10-15T14:45:20.295Z,23.19
2022-10-15T14:47:50.454Z,23.33
2022-10-15T14:50:20.734Z,23.36
2022-10-15T14:52:51.825Z,23.36
2022-10-15T14:55:33.224Z,23.59
2022-10-15T14:58:03.408Z,22.98
2022-10-15T15:00:34.144Z,23.12
2022-10-15T15:03:05.417Z,23.15
2022-10-15T15:05:45.788Z,23.47
2022-10-15T15:08:14.205Z,22.72
2022-10-15T15:10:42.673Z,22.75
2022-10-15T15:13:12.595Z,22.94
2022-10-15T15:15:41.453Z,23.00
2022-10-15T15:18:10.654Z,22.98
2022-10-15T15:20:41.523Z,23.20
2022-10-15T15:23:11.498Z,23.41
2022-10-15T15:25:41.088Z,23.29
2022-10-15T15:28:14.027Z,23.24
2022-10-15T15:30:43.839Z,23.19
2022-10-15T15:33:12.762Z,22.89
2022-10-15T15:35:50.843Z,23.27
2022-10-15T15:38:19.799Z,22.86
2022-10-15T15:40:48.243Z,22.94
2022-10-15T15:43:18.155Z,23.04
2022-10-15T15:45:47.803Z,22.92
2022-10-15T15:48:17.074Z,22.58
2022-10-15T15:50:47.632Z,23.16
2022-10-15T15:53:16.090Z,22.59
2022-10-15T15:55:44.331Z,22.59
2022-10-15T15:58:13.206Z,22.47
2022-10-15T16:00:41.306Z,22.45
2022-10-15T16:03:10.374Z,22.66
2022-10-15T16:05:40.874Z,22.66
2022-10-15T16:08:12.273Z,22.80
2022-10-15T16:10:40.455Z,22.05
2022-10-15T16:13:08.920Z,22.11
2022-10-15T16:15:37.018Z,21.97
2022-10-15T16:18:05.505Z,22.12
2022-10-15T16:20:35.873Z,21.89
2022-10-15T16:23:04.518Z,21.85
2022-10-15T16:25:33.955Z,22.23
2022-10-15T16:28:02.436Z,21.81
2022-10-15T16:30:30.774Z,21.82
2022-10-15T16:32:59.467Z,21.84
2022-10-15T16:35:27.634Z,21.63
2022-10-15T16:37:56.330Z,21.59
2022-10-15T16:40:24.512Z,21.56
2022-10-15T16:42:54.169Z,21.94
2022-10-15T16:45:22.724Z,21.55
2022-10-15T16:47:51.005Z,21.49
2022-10-15T16:50:19.421Z,21.55
2022-10-15T16:52:47.762Z,21.46
2022-10-15T16:55:16.863Z,21.51
2022-10-15T16:57:45.394Z,21.37
2022-10-15T17:00:15.486Z,21.87
2022-10-15T17:02:43.915Z,21.33
2022-10-15T17:05:12.398Z,21.23
2022-10-15T17:07:41.421Z,21.14
2022-10-15T17:10:13.889Z,21.46
2022-10-15T17:12:43.327Z,21.25
2022-10-15T17:15:12.315Z,21.38
2022-10-15T17:17:41.918Z,21.66
2022-10-15T17:20:11.199Z,21.57
2022-10-15T17:22:39.649Z,21.38
2022-10-15T17:25:08.273Z,21.52
2022-10-15T17:27:36.708Z,21.36
2022-10-15T17:30:05.758Z,21.52
2022-10-15T17:32:34.310Z,21.49
2022-10-15T17:35:04.626Z,21.91
2022-10-15T17:40:03.200Z,21.28
2022-10-15T17:42:31.611Z,21.11
2022-10-15T17:44:59.902Z,21.11
2022-10-15T17:47:28.699Z,21.07
2022-10-15T17:49:57.250Z,21.05
2022-10-15T17:52:27.077Z,21.43
2022-10-15T17:54:55.463Z,21.06
2022-10-15T17:57:24.139Z,20.95
2022-10-15T17:59:52.473Z,20.93
2022-10-15T18:02:20.842Z,20.80
2022-10-15T18:04:49.171Z,20.70
2022-10-15T18:07:19.947Z,21.02
2022-10-15T18:09:50.079Z,21.28
2022-10-15T18:12:18.568Z,20.76
2022-10-15T18:14:46.999Z,20.86
2022-10-15T18:17:15.453Z,20.87
2022-10-15T18:19:44.144Z,20.99
2022-10-15T18:22:13.038Z,21.15
2022-10-15T18:24:41.219Z,21.04
2022-10-15T18:27:10.976Z,21.37
2022-10-15T18:29:39.929Z,21.08
2022-10-15T18:32:08.964Z,21.08
2022-10-15T18:34:37.094Z,21.11
2022-10-15T18:37:05.506Z,21.18
2022-10-15T18:39:33.877Z,21.17
2022-10-15T18:42:02.185Z,21.13
2022-10-15T18:44:33.399Z,21.55
2022-10-15T18:47:01.721Z,22.41
2022-10-15T18:49:29.945Z,21.09
2022-10-15T18:52:00.421Z,21.03
2022-10-15T18:54:36.521Z,21.06
2022-10-15T18:57:05.138Z,21.05
2022-10-15T18:59:34.809Z,21.45
2022-10-15T19:02:03.270Z,21.01
2022-10-15T19:04:31.411Z,21.00
2022-10-15T19:07:02.409Z,20.99
2022-10-15T19:09:30.576Z,21.00
2022-10-15T19:11:59.420Z,21.16
2022-10-15T19:14:29.259Z,21.20
2022-10-15T19:16:59.031Z,21.29
2022-10-15T19:19:27.482Z,21.04
2022-10-15T19:21:56.561Z,20.75
2022-10-15T19:24:25.150Z,20.78
2022-10-15T19:26:53.709Z,20.94
2022-10-15T19:29:22.166Z,21.06
2022-10-15T19:31:51.023Z,21.16
2022-10-15T19:34:22.721Z,21.42
2022-10-15T19:36:51.697Z,21.01
2022-10-15T19:39:21.294Z,21.39
2022-10-15T19:41:50.543Z,21.34
2022-10-15T19:44:25.278Z,21.59
2022-10-15T19:46:54.493Z,21.03
2022-10-15T19:49:24.589Z,21.48
2022-10-15T19:51:52.997Z,21.04
2022-10-15T19:54:21.286Z,20.95
2022-10-15T19:56:49.691Z,21.00
2022-10-15T19:59:18.297Z,21.01
2022-10-15T20:01:46.599Z,20.98
2022-10-15T20:04:14.809Z,21.09
2022-10-15T20:06:45.029Z,21.45
2022-10-15T20:09:13.379Z,21.08
2022-10-15T20:11:41.919Z,21.10
2022-10-15T20:14:10.267Z,21.20
2022-10-15T20:16:39.171Z,21.18
2022-10-15T20:19:07.556Z,21.11
2022-10-15T20:21:35.871Z,21.00
2022-10-15T20:24:05.749Z,21.54
2022-10-15T20:26:34.533Z,21.17
2022-10-15T20:29:03.161Z,21.04
2022-10-15T20:31:34.994Z,20.99
2022-10-15T20:34:04.126Z,21.11
2022-10-15T20:36:32.933Z,20.95
2022-10-15T20:39:01.747Z,21.27
2022-10-15T20:41:31.468Z,21.43
2022-10-15T20:44:00.000Z,21.04
2022-10-15T20:46:31.480Z,21.24
2022-10-15T20:49:06.054Z,21.42
2022-10-15T20:51:38.480Z,21.33
2022-10-15T20:54:06.788Z,20.96
2022-10-15T20:56:36.678Z,21.37
2022-10-15T20:59:05.459Z,21.13
2022-10-15T21:01:34.540Z,21.14
2022-10-15T21:04:03.137Z,21.12
2022-10-15T21:06:31.616Z,21.03
2022-10-15T21:08:59.819Z,21.05
2022-10-15T21:11:28.396Z,21.10
2022-10-15T21:13:58.024Z,21.50
2022-10-15T21:16:28.572Z,21.04
2022-10-15T21:18:56.873Z,21.10
2022-10-15T21:21:25.333Z,21.09
2022-10-15T21:23:53.477Z,21.05
2022-10-15T21:26:22.056Z,21.07
2022-10-15T21:28:55.349Z,21.70
2022-10-15T21:31:25.821Z,21.42
2022-10-15T21:33:54.724Z,21.18
2022-10-15T21:36:26.131Z,21.33
2022-10-15T21:38:55.089Z,21.21
2022-10-15T21:41:23.613Z,21.06
2022-10-15T21:43:51.790Z,21.04
2022-10-15T21:46:20.230Z,21.05
2022-10-15T21:48:49.724Z,21.49
2022-10-15T21:51:19.733Z,21.29
2022-10-15T21:53:48.652Z,21.36
2022-10-15T21:56:17.065Z,21.08
2022-10-15T21:58:45.352Z,21.49
2022-10-15T22:01:17.125Z,21.91
2022-10-15T22:03:49.628Z,21.78
2022-10-15T22:06:18.585Z,21.69
2022-10-15T22:08:47.017Z,21.65
2022-10-15T22:11:17.390Z,21.81
2022-10-15T22:13:46.996Z,21.77
2022-10-15T22:16:15.863Z,21.50
2022-10-15T22:18:44.266Z,21.52
2022-10-15T22:21:16.278Z,21.95
2022-10-15T22:23:45.064Z,21.50
2022-10-15T22:26:13.667Z,21.55
2022-10-15T22:28:42.285Z,21.50
2022-10-15T22:31:13.040Z,21.58
2022-10-15T22:33:41.948Z,21.42
2022-10-15T22:36:16.433Z,21.89
2022-10-15T22:38:46.352Z,21.62
2022-10-15T22:41:15.418Z,21.38
2022-10-15T22:43:43.554Z,21.16
2022-10-15T22:46:12.106Z,21.29
2022-10-15T22:48:41.674Z,21.40
2022-10-15T22:51:11.759Z,21.49
2022-10-15T22:53:41.578Z,21.46
2022-10-15T22:56:12.635Z,21.52
2022-10-15T22:58:40.802Z,21.01
2022-10-15T23:01:11.100Z,21.32
2022-10-15T23:03:39.822Z,20.95
2022-10-15T23:06:08.661Z,20.86
2022-10-15T23:08:37.238Z,21.08
2022-10-15T23:11:11.967Z,21.54
2022-10-15T23:13:40.897Z,21.14
2022-10-15T23:16:12.057Z,21.10
2022-10-15T23:18:40.982Z,20.82
2022-10-15T23:21:13.849Z,21.21
2022-10-15T23:23:42.009Z,20.55
2022-10-15T23:26:12.516Z,20.98
2022-10-15T23:28:40.684Z,20.56
2022-10-15T23:31:12.603Z,20.52
2022-10-15T23:33:40.594Z,20.36
2022-10-15T23:36:09.150Z,20.36
2022-10-15T23:38:37.344Z,20.30
2022-10-15T23:41:07.295Z,20.74
2022-10-15T23:43:36.708Z,20.80
2022-10-15T23:46:05.021Z,20.38
2022-10-15T23:48:33.145Z,20.37
2022-10-15T23:51:03.517Z,20.42
2022-10-15T23:53:34.007Z,20.81
2022-10-15T23:56:03.082Z,20.53
2022-10-15T23:58:32.287Z,20.36
